Time;durP1;ratioP1;P1;durP2;ratioP2;P2;SDS_P1;SDS_P2;PMS_P1;PMS_P2;Temp;Humidity;BMP_temperature;BMP_pressure;BME280_temperature;BME280_humidity;BME280_pressure;Samples;Min_cycle;Max_cycle;Signal;HPM_P1;HPM_P2
2023/01/25 00:01:47;;;;;;;39.33;21.08;;;0.80;99.90;;;;;;5093583;28;20473;-62
2023/01/25 00:04:13;;;;;;;43.15;23.17;;;0.90;99.90;;;;;;5093448;28;20111;-62
2023/01/25 00:06:38;;;;;;;38.10;21.38;;;0.80;99.90;;;;;;5093453;28;20027;-62
2023/01/25 00:09:04;;;;;;;35.10;20.27;;;0.80;99.90;;;;;;5093422;28;20107;-62
2023/01/25 00:11:30;;;;;;;43.85;22.92;;;0.90;99.90;;;;;;5093198;28;20060;-62
2023/01/25 00:13:56;;;;;;;43.30;23.48;;;0.80;99.90;;;;;;5093181;28;20024;-62
2023/01/25 00:16:22;;;;;;;46.97;23.95;;;0.80;99.90;;;;;;5092026;28;20422;-62
2023/01/25 00:18:48;;;;;;;43.80;22.83;;;0.80;99.90;;;;;;5093267;28;20028;-62
2023/01/25 00:21:18;;;;;;;46.58;23.88;;;0.80;99.90;;;;;;5095237;28;20016;-62
2023/01/25 00:23:43;;;;;;;47.13;23.58;;;0.80;99.90;;;;;;5097447;28;20047;-62
2023/01/25 00:26:09;;;;;;;45.20;23.95;;;0.80;99.90;;;;;;5097115;28;20378;-62
2023/01/25 00:28:35;;;;;;;48.90;25.88;;;0.70;99.90;;;;;;5097096;28;20512;-62
2023/01/25 00:31:02;;;;;;;43.17;23.15;;;0.70;99.90;;;;;;5097093;28;20501;-62
2023/01/25 00:33:56;;;;;;;49.58;25.10;;;0.80;99.90;;;;;;5097072;28;20037;-62
2023/01/25 00:36:39;;;;;;;;;;;0.70;99.90;;;;;;5097607;28;20032;-62
2023/01/25 00:39:05;;;;;;;49.38;23.90;;;0.70;99.90;;;;;;5096917;28;20292;-62
2023/01/25 00:41:31;;;;;;;49.47;24.95;;;0.80;99.90;;;;;;5096834;28;20031;-62
2023/01/25 00:43:57;;;;;;;47.67;25.23;;;0.70;99.90;;;;;;5096798;28;20020;-62
2023/01/25 00:46:23;;;;;;;47.72;24.70;;;0.70;99.90;;;;;;5096986;28;20523;-62
2023/01/25 00:48:48;;;;;;;46.22;24.27;;;0.60;99.90;;;;;;5095449;28;20024;-62
2023/01/25 00:51:14;;;;;;;47.10;24.40;;;0.60;99.90;;;;;;5096578;28;20063;-62
2023/01/25 00:53:40;;;;;;;48.03;24.45;;;0.60;99.90;;;;;;5095377;28;20056;-62
2023/01/25 00:56:06;;;;;;;49.67;25.35;;;0.50;99.90;;;;;;5096564;28;20032;-62
2023/01/25 00:58:32;;;;;;;45.28;23.90;;;0.50;99.90;;;;;;5094946;28;20052;-62
2023/01/25 01:00:57;;;;;;;48.17;24.98;;;0.50;99.90;;;;;;5096529;28;20107;-62
2023/01/25 01:03:23;;;;;;;45.05;23.35;;;0.60;99.90;;;;;;5096672;28;20024;-62
2023/01/25 01:06:00;;;;;;;44.55;24.35;;;0.50;99.90;;;;;;5096505;28;20030;-62
2023/01/25 01:08:26;;;;;;;43.20;23.55;;;0.50;99.90;;;;;;5096597;28;20028;-62
2023/01/25 01:10:56;;;;;;;44.08;24.10;;;0.50;99.90;;;;;;5096553;28;20048;-63
2023/01/25 01:13:22;;;;;;;46.83;24.52;;;0.50;99.90;;;;;;5096524;28;20119;-62
2023/01/25 01:15:47;;;;;;;48.35;25.67;;;0.50;99.90;;;;;;5096137;28;20110;-62
2023/01/25 01:18:13;;;;;;;41.75;21.92;;;0.50;99.90;;;;;;5096026;28;20032;-62
2023/01/25 01:20:38;;;;;;;46.33;23.77;;;0.40;99.90;;;;;;5096042;28;20024;-62
2023/01/25 01:23:04;;;;;;;43.90;23.05;;;0.50;99.90;;;;;;5096243;28;20097;-62
2023/01/25 01:25:29;;;;;;;45.85;23.42;;;0.40;99.90;;;;;;5096242;28;20511;-62
2023/01/25 01:27:55;;;;;;;47.80;24.88;;;0.40;99.90;;;;;;5095809;28;20032;-62
2023/01/25 01:30:21;;;;;;;47.15;24.30;;;0.40;99.90;;;;;;5095662;28;20024;-62
2023/01/25 01:32:46;;;;;;;50.67;25.38;;;0.40;99.90;;;;;;5096096;28;20020;-62
2023/01/25 01:35:12;;;;;;;50.08;25.30;;;0.40;99.90;;;;;;5095785;28;20112;-62
2023/01/25 01:37:41;;;;;;;44.28;23.95;;;0.50;99.90;;;;;;5095742;28;20068;-62
2023/01/25 01:40:11;;;;;;;48.95;24.60;;;0.40;99.90;;;;;;5095657;28;20122;-62
2023/01/25 01:42:59;;;;;;;51.47;25.58;;;0.40;99.90;;;;;;5095686;28;20016;-62
2023/01/25 01:48:36;;;;;;;48.88;24.67;;;0.30;99.90;;;;;;5111145;27;20881;-62
2023/01/25 01:51:25;;;;;;;51.22;24.55;;;0.30;99.90;;;;;;5111117;28;20111;-62
2023/01/25 01:53:59;;;;;;;50.13;25.10;;;0.40;99.90;;;;;;5110971;28;20069;-61
2023/01/25 01:56:31;;;;;;;48.03;25.90;;;0.30;99.90;;;;;;5111068;28;20085;-61
2023/01/25 01:58:58;;;;;;;47.30;25.63;;;0.30;99.90;;;;;;5111166;28;20094;-61
2023/01/25 02:01:24;;;;;;;52.10;26.88;;;0.40;99.90;;;;;;5110927;28;20027;-61
2023/01/25 02:03:50;;;;;;;49.60;25.15;;;0.40;99.90;;;;;;5111071;28;20115;-61
2023/01/25 02:06:25;;;;;;;49.38;25.55;;;0.30;99.90;;;;;;5110685;28;20499;-62
2023/01/25 02:08:53;;;;;;;49.78;25.23;;;0.30;99.90;;;;;;5110848;28;20027;-61
2023/01/25 02:11:19;;;;;;;48.38;23.60;;;0.30;99.90;;;;;;5110818;28;20524;-61
2023/01/25 02:13:46;;;;;;;48.33;23.80;;;0.20;99.90;;;;;;5110925;28;20059;-61
2023/01/25 02:16:16;;;;;;;46.45;23.92;;;0.20;99.90;;;;;;5110612;28;20028;-62
2023/01/25 02:18:42;;;;;;;50.65;24.63;;;0.20;99.90;;;;;;5109239;28;20111;-62
2023/01/25 02:21:07;;;;;;;42.03;21.75;;;0.20;99.90;;;;;;5110420;28;20063;-61
2023/01/25 02:23:49;;;;;;;44.95;24.02;;;0.20;99.90;;;;;;5110730;28;20027;-62
2023/01/25 02:26:17;;;;;;;44.13;23.13;;;0.20;99.90;;;;;;5110354;28;20069;-61
2023/01/25 02:28:49;;;;;;;46.22;23.75;;;0.20;99.90;;;;;;5110633;28;20481;-61
2023/01/25 02:31:15;;;;;;;37.83;18.58;;;0.10;99.90;;;;;;5110597;28;20020;-61
2023/01/25 02:33:42;;;;;;;49.03;26.33;;;0.10;99.90;;;;;;5110309;28;20050;-61
2023/01/25 02:38:53;;;;;;;48.05;25.30;;;0.10;99.90;;;;;;5111260;27;20115;-62
2023/01/25 02:41:36;;;;;;;48.20;24.10;;;0.10;99.90;;;;;;5111354;28;20030;-63
2023/01/25 02:44:07;;;;;;;49.38;25.15;;;0.10;99.90;;;;;;5111315;28;20051;-62
2023/01/25 02:46:36;;;;;;;53.72;26.77;;;0.10;99.90;;;;;;5111219;28;20481;-62
2023/01/25 02:49:04;;;;;;;56.47;26.80;;;0.20;99.90;;;;;;5111242;28;20097;-62
2023/01/25 02:51:32;;;;;;;49.53;24.33;;;0.20;99.90;;;;;;5110895;28;20028;-62
2023/01/25 02:53:58;;;;;;;50.67;26.02;;;0.10;99.90;;;;;;5111067;28;20027;-62
2023/01/25 02:56:24;;;;;;;46.97;23.67;;;0.10;99.90;;;;;;5110967;28;20389;-62
2023/01/25 02:58:50;;;;;;;46.25;23.48;;;0.10;99.90;;;;;;5110860;28;20024;-62
2023/01/25 03:01:17;;;;;;;48.90;24.73;;;0.10;99.90;;;;;;5109572;28;20089;-62
2023/01/25 03:03:42;;;;;;;48.38;23.83;;;0.10;99.90;;;;;;5109471;28;20077;-62
2023/01/25 03:06:09;;;;;;;47.38;24.45;;;0.10;99.90;;;;;;5109334;28;20024;-62
2023/01/25 03:08:34;;;;;;;49.38;25.50;;;0.00;99.90;;;;;;5110622;28;20020;-62
2023/01/25 03:11:02;;;;;;;44.20;22.65;;;0.00;99.90;;;;;;5109614;28;20024;-62
2023/01/25 03:13:28;;;;;;;47.28;23.10;;;0.00;99.90;;;;;;5110404;28;20027;-62
2023/01/25 03:16:04;;;;;;;47.47;22.83;;;0.00;99.90;;;;;;5109529;28;20097;-62
2023/01/25 03:18:30;;;;;;;48.25;23.63;;;0.00;99.90;;;;;;5109100;28;20088;-62
2023/01/25 03:20:56;;;;;;;50.17;24.38;;;0.00;99.90;;;;;;5110572;28;20051;-62
2023/01/25 03:23:21;;;;;;;48.17;24.23;;;0.00;99.90;;;;;;5110280;28;20016;-62
2023/01/25 03:25:47;;;;;;;49.03;23.98;;;0.00;99.90;;;;;;5110466;28;20020;-62
2023/01/25 03:28:13;;;;;;;49.78;24.08;;;0.00;99.90;;;;;;5110246;28;20111;-62
2023/01/25 03:30:38;;;;;;;53.50;25.52;;;-0.10;99.90;;;;;;5110335;28;20035;-62
2023/01/25 03:33:04;;;;;;;47.40;24.10;;;-0.10;99.90;;;;;;5110083;28;20439;-62
2023/01/25 03:35:29;;;;;;;51.03;24.60;;;-0.10;99.90;;;;;;5110281;28;20440;-62
2023/01/25 03:37:55;;;;;;;55.00;26.23;;;-0.10;99.90;;;;;;5109753;28;20394;-62
2023/01/25 03:40:21;;;;;;;49.20;24.58;;;-0.10;99.90;;;;;;5109972;28;20031;-62
2023/01/25 03:42:46;;;;;;;53.60;25.33;;;-0.10;99.90;;;;;;5109898;28;20034;-62
2023/01/25 03:45:13;;;;;;;58.78;26.70;;;-0.10;99.90;;;;;;5110130;28;20023;-62
2023/01/25 03:47:39;;;;;;;53.33;26.42;;;-0.10;99.90;;;;;;5110080;28;20035;-62
2023/01/25 03:50:06;;;;;;;59.50;27.08;;;-0.10;99.90;;;;;;5096366;28;20060;-62
2023/01/25 03:52:37;;;;;;;53.38;25.73;;;-0.10;99.90;;;;;;5096155;28;20027;-62
2023/01/25 03:55:03;;;;;;;55.13;26.90;;;-0.10;99.90;;;;;;5096116;28;20046;-62
2023/01/25 03:57:29;;;;;;;62.03;27.65;;;-0.10;99.90;;;;;;5095041;28;20028;-62
2023/01/25 03:59:54;;;;;;;50.88;23.35;;;-0.10;99.90;;;;;;5096032;28;20398;-63
2023/01/25 04:02:20;;;;;;;56.72;25.48;;;-0.10;99.90;;;;;;5096203;28;20474;-62
2023/01/25 04:04:45;;;;;;;61.53;28.08;;;-0.10;99.90;;;;;;5096162;28;20020;-62
2023/01/25 04:07:11;;;;;;;60.58;29.23;;;-0.10;99.90;;;;;;5096115;28;20026;-62
2023/01/25 04:09:36;;;;;;;67.30;30.50;;;-0.10;99.90;;;;;;5095852;28;20062;-62
2023/01/25 04:12:02;;;;;;;62.15;29.08;;;-0.20;99.90;;;;;;5096038;28;20470;-62
2023/01/25 04:14:27;;;;;;;64.90;28.85;;;-0.20;99.90;;;;;;5095735;28;20058;-62
2023/01/25 04:16:53;;;;;;;65.25;28.88;;;-0.30;99.90;;;;;;5077829;28;20123;-62
2023/01/25 04:19:18;;;;;;;62.35;27.77;;;-0.30;99.90;;;;;;5095705;28;20021;-62
2023/01/25 04:21:44;;;;;;;67.93;29.15;;;-0.30;99.90;;;;;;5095546;28;20013;-62
2023/01/25 04:24:09;;;;;;;66.25;29.75;;;-0.30;99.90;;;;;;5095825;28;20373;-62
2023/01/25 04:26:35;;;;;;;67.25;29.67;;;-0.30;99.90;;;;;;5095517;28;20063;-62
2023/01/25 04:29:00;;;;;;;66.25;28.77;;;-0.40;99.90;;;;;;5095696;28;20023;-62
2023/01/25 04:31:26;;;;;;;68.22;30.50;;;-0.30;99.90;;;;;;5095405;28;20500;-62
2023/01/25 04:33:52;;;;;;;67.15;30.42;;;-0.30;99.90;;;;;;5095646;28;20020;-62
2023/01/25 04:36:17;;;;;;;71.10;32.70;;;-0.30;99.90;;;;;;5095297;28;20077;-62
2023/01/25 04:38:43;;;;;;;61.38;26.85;;;-0.40;99.90;;;;;;5095176;28;20040;-62
2023/01/25 04:41:08;;;;;;;67.55;28.08;;;-0.30;99.90;;;;;;5095254;28;20028;-62
2023/01/25 04:43:34;;;;;;;67.45;29.60;;;-0.30;99.90;;;;;;5095442;28;20016;-62
2023/01/25 04:46:01;;;;;;;60.25;26.95;;;-0.30;99.90;;;;;;5095112;28;20032;-62
2023/01/25 04:48:27;;;;;;;59.08;26.38;;;-0.30;99.90;;;;;;5095111;28;20024;-62
2023/01/25 04:50:52;;;;;;;61.78;28.25;;;-0.30;99.90;;;;;;5095011;28;20535;-62
2023/01/25 04:53:18;;;;;;;63.80;29.05;;;-0.40;99.90;;;;;;5094964;28;20031;-62
2023/01/25 04:55:46;;;;;;;64.70;28.95;;;-0.30;99.90;;;;;;5094937;28;20054;-62
2023/01/25 04:58:12;;;;;;;67.35;29.02;;;-0.30;99.90;;;;;;5095027;28;20020;-62
2023/01/25 05:00:37;;;;;;;67.10;30.13;;;-0.40;99.90;;;;;;5092640;28;20028;-62
2023/01/25 05:03:03;;;;;;;69.25;30.85;;;-0.40;99.90;;;;;;5095026;28;20026;-62
2023/01/25 05:05:29;;;;;;;68.72;30.33;;;-0.30;99.90;;;;;;5094939;28;20027;-62
2023/01/25 05:07:54;;;;;;;66.55;29.48;;;-0.30;99.90;;;;;;5094738;28;20430;-65
2023/01/25 05:10:20;;;;;;;80.00;33.45;;;-0.30;99.90;;;;;;5094856;28;20036;-62
2023/01/25 05:12:46;;;;;;;71.07;32.42;;;-0.40;99.90;;;;;;5094578;28;20024;-62
2023/01/25 05:15:12;;;;;;;75.30;32.72;;;-0.30;99.90;;;;;;5094799;28;20071;-62
2023/01/25 05:17:37;;;;;;;75.63;34.20;;;-0.30;99.90;;;;;;5094406;28;20027;-62
2023/01/25 05:20:03;;;;;;;71.05;33.00;;;-0.30;99.90;;;;;;5094742;28;20024;-62
2023/01/25 05:22:29;;;;;;;69.20;31.58;;;-0.30;99.90;;;;;;5094625;28;20020;-62
2023/01/25 05:24:55;;;;;;;78.95;35.55;;;-0.30;99.90;;;;;;5093177;28;20466;-62
2023/01/25 05:27:20;;;;;;;70.30;31.20;;;-0.30;99.90;;;;;;5094440;28;20020;-62
2023/01/25 05:29:46;;;;;;;72.80;32.33;;;-0.30;99.90;;;;;;5094195;28;20306;-62
2023/01/25 05:32:17;;;;;;;76.07;33.50;;;-0.30;99.90;;;;;;5092985;28;20043;-62
2023/01/25 05:34:42;;;;;;;73.10;33.80;;;-0.30;99.90;;;;;;5094134;28;20024;-62
2023/01/25 05:37:10;;;;;;;73.32;33.25;;;-0.30;99.90;;;;;;5093850;28;20128;-62
2023/01/25 05:39:35;;;;;;;71.95;32.70;;;-0.20;99.90;;;;;;5094136;28;20020;-62
2023/01/25 05:42:01;;;;;;;79.90;35.97;;;-0.20;99.90;;;;;;5094312;28;20363;-62
2023/01/25 05:44:26;;;;;;;77.57;34.92;;;-0.20;99.90;;;;;;5094052;28;20024;-62
2023/01/25 05:46:52;;;;;;;85.93;39.05;;;-0.20;99.90;;;;;;5094227;28;20077;-62
2023/01/25 05:49:18;;;;;;;82.38;36.75;;;-0.20;99.90;;;;;;5094194;28;20023;-62
2023/01/25 05:51:45;;;;;;;87.47;40.05;;;-0.10;99.90;;;;;;5092581;28;20470;-62
2023/01/25 05:54:14;;;;;;;84.38;37.20;;;-0.20;99.90;;;;;;5094049;28;20027;-62
2023/01/25 05:56:40;;;;;;;84.72;38.05;;;-0.20;99.90;;;;;;5093946;28;20032;-62
2023/01/25 05:59:05;;;;;;;84.50;39.72;;;-0.30;99.90;;;;;;5093747;28;20024;-63
2023/01/25 06:01:31;;;;;;;91.03;39.65;;;-0.20;99.90;;;;;;5093995;28;20034;-62
2023/01/25 06:03:57;;;;;;;95.55;40.83;;;-0.20;99.90;;;;;;5093844;28;20055;-63
2023/01/25 06:06:23;;;;;;;93.82;38.85;;;-0.30;99.90;;;;;;5093839;28;20405;-62
2023/01/25 06:08:50;;;;;;;95.60;41.38;;;-0.30;99.90;;;;;;5093503;28;20049;-63
2023/01/25 06:11:18;;;;;;;89.40;38.33;;;-0.30;99.90;;;;;;5093644;28;20470;-63
2023/01/25 06:13:44;;;;;;;91.57;39.00;;;-0.30;99.90;;;;;;5093811;28;20424;-62
2023/01/25 06:16:10;;;;;;;90.78;41.03;;;-0.20;99.90;;;;;;5093754;28;20020;-62
2023/01/25 06:18:36;;;;;;;98.88;42.28;;;-0.20;99.90;;;;;;5092199;28;20080;-62
2023/01/25 06:21:03;;;;;;;93.95;39.67;;;-0.20;99.90;;;;;;5093433;28;20153;-62
2023/01/25 06:23:29;;;;;;;103.50;42.63;;;-0.30;99.90;;;;;;5093653;28;20465;-62
2023/01/25 06:26:05;;;;;;;97.75;41.88;;;-0.30;99.90;;;;;;5093511;28;20028;-62
2023/01/25 06:28:32;;;;;;;93.30;39.63;;;-0.30;99.90;;;;;;5093542;28;20077;-62
2023/01/25 06:31:15;;;;;;;99.32;39.65;;;-0.30;99.90;;;;;;5093266;28;20039;-62
2023/01/25 06:33:42;;;;;;;72.10;28.75;;;-0.20;99.90;;;;;;5092389;28;20393;-62
2023/01/25 06:36:13;;;;;;;93.13;36.63;;;-0.20;99.90;;;;;;5093295;28;20028;-62
2023/01/25 06:38:40;;;;;;;81.10;35.67;;;-0.20;99.90;;;;;;5093012;28;20052;-62
2023/01/25 06:41:09;;;;;;;89.63;37.08;;;-0.30;99.90;;;;;;5093443;28;20103;-62
2023/01/25 06:43:36;;;;;;;93.80;38.30;;;-0.30;99.90;;;;;;5093226;28;20059;-62
2023/01/25 06:46:03;;;;;;;86.60;37.25;;;-0.30;99.90;;;;;;5093539;28;20077;-62
2023/01/25 06:48:30;;;;;;;91.32;37.30;;;-0.30;99.90;;;;;;5093382;28;20111;-62
2023/01/25 06:50:59;;;;;;;89.88;37.95;;;-0.30;99.90;;;;;;5093124;28;20501;-63
2023/01/25 06:53:27;;;;;;;98.32;39.80;;;-0.40;99.90;;;;;;5093065;28;20043;-62
2023/01/25 06:55:59;;;;;;;97.88;39.90;;;-0.40;99.90;;;;;;5093256;28;20518;-62
2023/01/25 06:58:26;;;;;;;92.40;37.43;;;-0.30;99.90;;;;;;5092802;28;20119;-62
2023/01/25 07:00:52;;;;;;;92.70;38.08;;;-0.30;99.90;;;;;;5092957;28;20744;-62
2023/01/25 07:03:18;;;;;;;94.38;39.05;;;-0.30;99.90;;;;;;5092077;28;20025;-62
2023/01/25 07:05:43;;;;;;;97.50;40.25;;;-0.30;99.90;;;;;;5092981;28;20020;-63
2023/01/25 07:08:09;;;;;;;91.43;36.85;;;-0.30;99.90;;;;;;5093150;28;20031;-62
2023/01/25 07:10:34;;;;;;;89.07;36.67;;;-0.30;99.90;;;;;;5092876;28;20032;-62
2023/01/25 07:13:00;;;;;;;97.82;39.75;;;-0.30;99.90;;;;;;5092959;28;20028;-62
2023/01/25 07:15:26;;;;;;;91.53;37.05;;;-0.30;99.90;;;;;;5092876;28;20142;-62
2023/01/25 07:17:52;;;;;;;91.68;37.25;;;-0.30;99.90;;;;;;5092981;28;20028;-62
2023/01/25 07:20:17;;;;;;;86.40;36.58;;;-0.30;99.90;;;;;;5092720;28;20389;-62
2023/01/25 07:22:43;;;;;;;94.93;40.53;;;-0.30;99.90;;;;;;5093032;28;20017;-63
2023/01/25 07:25:09;;;;;;;110.03;48.75;;;-0.30;99.90;;;;;;5096167;28;20474;-62
2023/01/25 07:27:34;;;;;;;100.88;41.80;;;-0.30;99.90;;;;;;5096630;28;20020;-62
2023/01/25 07:30:01;;;;;;;108.40;44.97;;;-0.30;99.90;;;;;;5096559;28;20052;-63
2023/01/25 07:32:27;;;;;;;100.65;41.20;;;-0.20;99.90;;;;;;5097086;28;20056;-63
2023/01/25 07:34:53;;;;;;;92.65;38.85;;;-0.20;99.90;;;;;;5096686;28;20531;-62
2023/01/25 07:37:19;;;;;;;92.40;36.75;;;-0.20;99.90;;;;;;5096244;28;20515;-63
2023/01/25 07:39:48;;;;;;;100.55;37.83;;;-0.20;99.90;;;;;;5094327;28;20474;-62
2023/01/25 07:42:14;;;;;;;92.97;36.05;;;-0.30;99.90;;;;;;5080722;28;20025;-62
2023/01/25 07:44:40;;;;;;;89.53;35.30;;;-0.40;99.90;;;;;;5093360;28;20077;-62
2023/01/25 07:47:05;;;;;;;100.85;38.40;;;-0.40;99.90;;;;;;5094288;28;20039;-62
2023/01/25 07:49:31;;;;;;;98.85;38.10;;;-0.40;99.90;;;;;;5096092;28;20032;-63
2023/01/25 07:51:57;;;;;;;95.13;38.60;;;-0.40;99.90;;;;;;5095776;28;20040;-63
2023/01/25 07:54:22;;;;;;;99.00;38.72;;;-0.40;99.90;;;;;;5096298;28;20051;-62
2023/01/25 07:56:48;;;;;;;103.22;39.72;;;-0.40;99.90;;;;;;5095226;28;20666;-62
2023/01/25 07:59:14;;;;;;;96.72;39.50;;;-0.30;99.90;;;;;;5095838;28;20031;-63
2023/01/25 08:01:40;;;;;;;99.68;39.65;;;-0.30;99.90;;;;;;5095660;28;20024;-62
2023/01/25 08:04:06;;;;;;;99.18;39.72;;;-0.30;99.90;;;;;;5095571;28;20028;-63
2023/01/25 08:06:34;;;;;;;100.93;39.95;;;-0.40;99.90;;;;;;5095668;28;20034;-62
2023/01/25 08:09:05;;;;;;;102.72;41.60;;;-0.30;99.90;;;;;;5095726;28;20024;-63
2023/01/25 08:11:31;;;;;;;107.80;41.95;;;-0.30;99.90;;;;;;5095772;28;20020;-62
2023/01/25 08:13:57;;;;;;;110.00;42.40;;;-0.30;99.90;;;;;;5095762;28;20020;-62
2023/01/25 08:16:25;;;;;;;108.70;42.58;;;-0.40;99.90;;;;;;5095302;28;20077;-62
2023/01/25 08:18:53;;;;;;;115.03;45.42;;;-0.40;99.90;;;;;;5095158;28;20115;-63
2023/01/25 08:21:20;;;;;;;115.18;41.53;;;-0.40;99.90;;;;;;5095311;28;20390;-62
2023/01/25 08:23:45;;;;;;;126.40;46.25;;;-0.40;99.90;;;;;;5089578;28;20527;-62
2023/01/25 08:26:13;;;;;;;120.80;44.08;;;-0.40;99.90;;;;;;5094869;28;20016;-63
2023/01/25 08:28:39;;;;;;;121.53;43.75;;;-0.40;99.90;;;;;;5095170;28;20035;-65
2023/01/25 08:33:45;;;;;;;123.53;44.50;;;-0.50;99.90;;;;;;5110429;27;20445;-62
2023/01/25 08:36:12;;;;;;;127.78;47.65;;;-0.40;99.90;;;;;;5109207;28;20030;-62
2023/01/25 08:38:38;;;;;;;105.68;42.08;;;-0.40;99.90;;;;;;5110464;28;20020;-62
2023/01/25 08:41:10;;;;;;;112.50;43.72;;;-0.40;99.90;;;;;;5108451;28;20024;-62
2023/01/25 08:43:36;;;;;;;119.22;47.13;;;-0.30;99.90;;;;;;5099157;28;20019;-62
2023/01/25 08:46:02;;;;;;;110.57;44.50;;;-0.30;99.90;;;;;;5110559;28;20027;-62
2023/01/25 08:48:28;;;;;;;114.22;44.45;;;-0.30;99.90;;;;;;5093913;28;20028;-62
2023/01/25 08:50:53;;;;;;;118.50;42.90;;;-0.30;99.90;;;;;;5090376;28;20101;-62
2023/01/25 08:53:19;;;;;;;119.05;44.30;;;-0.30;99.90;;;;;;5103803;28;20027;-62
2023/01/25 08:55:45;;;;;;;118.00;43.90;;;-0.30;99.90;;;;;;5109607;28;20035;-61
2023/01/25 08:58:12;;;;;;;113.55;43.63;;;-0.40;99.90;;;;;;5110453;28;20095;-62
2023/01/25 09:00:42;;;;;;;113.85;42.80;;;-0.40;99.90;;;;;;5110464;28;20030;-62
2023/01/25 09:03:09;;;;;;;121.95;42.97;;;-0.30;99.90;;;;;;5110072;28;20496;-62
2023/01/25 09:05:35;;;;;;;126.68;45.15;;;-0.30;99.90;;;;;;5110513;28;20477;-62
2023/01/25 09:08:02;;;;;;;126.72;43.88;;;-0.30;99.90;;;;;;5109895;28;20020;-62
2023/01/25 09:10:27;;;;;;;130.65;44.25;;;-0.30;99.90;;;;;;5110184;28;20153;-62
2023/01/25 09:12:53;;;;;;;129.13;45.42;;;-0.40;99.90;;;;;;5110113;28;20063;-62
2023/01/25 09:15:18;;;;;;;137.35;47.67;;;-0.40;99.90;;;;;;5109890;28;20031;-62
2023/01/25 09:17:44;;;;;;;127.45;45.40;;;-0.30;99.90;;;;;;5109994;28;20060;-62
2023/01/25 09:20:10;;;;;;;125.95;46.30;;;-0.30;99.90;;;;;;5110295;28;20377;-62
2023/01/25 09:22:36;;;;;;;128.43;45.15;;;-0.40;99.90;;;;;;5110229;28;20416;-62
2023/01/25 09:25:01;;;;;;;119.38;44.03;;;-0.30;99.90;;;;;;5110306;28;20107;-62
2023/01/25 09:27:27;;;;;;;136.65;46.25;;;-0.30;99.90;;;;;;5109761;28;20028;-62
2023/01/25 09:29:53;;;;;;;121.30;43.72;;;-0.40;99.90;;;;;;5109807;28;20027;-62
2023/01/25 09:32:18;;;;;;;123.82;44.72;;;-0.40;99.90;;;;;;5109007;28;20047;-62
2023/01/25 09:34:44;;;;;;;119.32;44.72;;;-0.30;99.90;;;;;;5109890;28;20019;-62
2023/01/25 09:37:09;;;;;;;128.90;45.88;;;-0.30;99.90;;;;;;5109442;28;20039;-62
2023/01/25 09:39:35;;;;;;;126.00;45.22;;;-0.30;99.90;;;;;;5109667;28;20024;-62
2023/01/25 09:42:31;;;;;;;131.98;47.22;;;-0.40;99.90;;;;;;5109430;28;20100;-62
2023/01/25 09:45:24;;;;;;;129.52;46.17;;;-0.40;99.90;;;;;;5096365;28;20028;-63
2023/01/25 09:47:58;;;;;;;;;;;-0.30;99.90;;;;;;5082555;28;20036;-62
2023/01/25 09:51:03;;;;;;;148.50;51.40;;;-0.40;99.90;;;;;;5095960;28;20285;-62
2023/01/25 09:53:35;;;;;;;143.48;51.03;;;-0.40;99.90;;;;;;5091893;28;20036;-62
2023/01/25 09:56:14;;;;;;;146.00;50.53;;;-0.40;99.90;;;;;;5095469;28;20106;-62
2023/01/25 09:58:44;;;;;;;150.32;51.35;;;-0.40;99.90;;;;;;5095738;28;20031;-62
2023/01/25 10:01:24;;;;;;;160.35;52.55;;;-0.30;99.90;;;;;;5095341;28;20028;-62
2023/01/25 10:03:57;;;;;;;162.15;52.45;;;-0.30;99.90;;;;;;5095305;28;20027;-62
2023/01/25 10:06:33;;;;;;;151.20;51.88;;;-0.40;99.90;;;;;;5095438;28;20055;-62
2023/01/25 10:09:10;;;;;;;151.15;51.42;;;-0.40;99.90;;;;;;5095718;28;20039;-62
2023/01/25 10:11:37;;;;;;;151.98;51.17;;;-0.30;99.90;;;;;;5094187;28;20481;-63
2023/01/25 10:14:13;;;;;;;143.20;50.67;;;-0.30;99.90;;;;;;5095713;28;20027;-62
2023/01/25 10:16:48;;;;;;;142.75;51.17;;;-0.30;99.90;;;;;;5095178;28;20038;-62
2023/01/25 10:19:41;;;;;;;138.75;49.13;;;-0.20;99.90;;;;;;5095407;28;20382;-62
2023/01/25 10:22:16;;;;;;;102.35;35.42;;;-0.20;99.90;;;;;;5095002;28;20024;-62
2023/01/25 10:25:21;;;;;;;143.80;52.17;;;-0.10;99.90;;;;;;5094005;28;20028;-62
2023/01/25 10:28:23;;;;;;;147.65;53.20;;;-0.20;99.90;;;;;;5094847;28;20112;-62
2023/01/25 10:31:01;;;;;;;143.88;51.42;;;-0.20;99.90;;;;;;5094803;28;20389;-62
2023/01/25 10:33:28;;;;;;;133.07;50.42;;;-0.30;99.90;;;;;;5094909;28;20117;-62
2023/01/25 10:35:57;;;;;;;149.60;51.88;;;-0.20;99.90;;;;;;5095078;28;20063;-62
2023/01/25 10:38:30;;;;;;;141.55;50.08;;;-0.20;99.90;;;;;;5095043;28;20024;-62
2023/01/25 10:41:02;;;;;;;136.68;48.70;;;-0.20;99.90;;;;;;5094942;28;20028;-62
2023/01/25 10:43:28;;;;;;;140.32;50.35;;;-0.20;99.90;;;;;;5094960;28;20485;-62
2023/01/25 10:45:53;;;;;;;149.18;53.13;;;-0.10;99.90;;;;;;5094142;28;20035;-62
2023/01/25 10:48:23;;;;;;;155.63;53.35;;;-0.20;99.90;;;;;;5094633;28;20039;-63
2023/01/25 10:50:52;;;;;;;152.93;53.50;;;-0.10;99.90;;;;;;5094275;28;20032;-62
2023/01/25 10:53:24;;;;;;;163.10;57.33;;;-0.10;99.90;;;;;;5093449;28;20566;-63
2023/01/25 10:56:14;;;;;;;154.07;54.03;;;-0.20;99.90;;;;;;5093726;28;20489;-63
2023/01/25 10:58:42;;;;;;;146.30;52.05;;;-0.20;99.90;;;;;;5094650;28;20039;-63
2023/01/25 11:01:12;;;;;;;145.13;51.45;;;-0.20;99.90;;;;;;5094159;28;20479;-63
2023/01/25 11:03:40;;;;;;;154.00;51.55;;;-0.20;99.90;;;;;;5094020;28;20016;-63
2023/01/25 11:06:07;;;;;;;171.95;57.97;;;-0.20;99.90;;;;;;5094296;28;20522;-63
2023/01/25 11:08:38;;;;;;;161.05;54.92;;;-0.20;99.90;;;;;;5094723;28;20086;-63
2023/01/25 11:11:42;;;;;;;152.20;52.90;;;-0.20;99.90;;;;;;5094533;28;20049;-63
2023/01/25 11:14:16;;;;;;;156.52;50.10;;;-0.10;99.90;;;;;;5093348;28;20039;-63
2023/01/25 11:16:45;;;;;;;158.38;52.97;;;0.00;99.90;;;;;;5094419;28;20028;-63
2023/01/25 11:22:25;;;;;;;161.18;54.63;;;0.00;99.90;;;;;;5070355;28;20379;-63
2023/01/25 11:24:50;;;;;;;157.68;52.58;;;0.00;99.90;;;;;;5049075;28;20498;-63
2023/01/25 11:27:26;;;;;;;170.90;59.00;;;0.00;99.90;;;;;;5050451;28;20021;-63
2023/01/25 11:30:10;;;;;;;191.93;66.45;;;0.00;99.90;;;;;;5054266;28;20023;-63
2023/01/25 11:32:38;;;;;;;157.18;52.83;;;0.00;99.90;;;;;;5069872;28;20113;-63
2023/01/25 11:35:19;;;;;;;162.98;56.10;;;0.00;99.90;;;;;;5069909;28;20025;-64
2023/01/25 11:44:10;;;;;;;137.10;49.92;;;0.00;99.90;;;;;;5069613;28;20398;-63
2023/01/25 11:46:52;;;;;;;141.75;50.05;;;-0.10;99.90;;;;;;5062805;28;20024;-63
2023/01/25 11:49:29;;;;;;;132.63;49.13;;;-0.10;99.90;;;;;;5070235;28;20375;-63
2023/01/25 11:55:02;;;;;;;145.98;50.72;;;-0.10;99.90;;;;;;5090559;28;20378;-63
2023/01/25 11:57:47;;;;;;;;;;;-0.10;99.90;;;;;;5091018;28;20081;-62
2023/01/25 12:00:35;;;;;;;168.45;54.22;;;-0.20;99.90;;;;;;5090313;28;19904;-62
2023/01/25 12:03:35;;;;;;;156.95;53.53;;;-0.10;99.90;;;;;;5088949;28;20028;-63
2023/01/25 12:06:26;;;;;;;184.00;61.08;;;-0.10;99.90;;;;;;5070337;28;20099;-64
2023/01/25 12:09:31;;;;;;;176.05;60.08;;;-0.10;99.90;;;;;;5069936;28;20020;-63
2023/01/25 12:12:25;;;;;;;183.98;62.30;;;0.00;99.90;;;;;;5070004;28;20474;-63
2023/01/25 12:15:24;;;;;;;144.80;51.00;;;0.00;99.90;;;;;;5069856;28;20040;-63
2023/01/25 12:18:26;;;;;;;166.98;60.85;;;-0.10;99.90;;;;;;5069660;28;20024;-63
2023/01/25 12:21:09;;;;;;;145.00;50.72;;;-0.10;99.90;;;;;;5069794;28;20027;-63
2023/01/25 12:24:14;;;;;;;135.45;49.10;;;-0.10;99.90;;;;;;5069779;28;20437;-63
2023/01/25 12:27:13;;;;;;;127.50;48.00;;;-0.10;99.90;;;;;;5069583;28;20021;-63
2023/01/25 12:30:00;;;;;;;127.65;48.28;;;-0.10;99.90;;;;;;5068026;28;20067;-63
2023/01/25 12:32:37;;;;;;;134.45;46.90;;;-0.10;99.90;;;;;;5069598;28;20067;-63
2023/01/25 12:35:29;;;;;;;129.02;47.45;;;-0.10;99.90;;;;;;5069575;28;20530;-63
2023/01/25 12:38:01;;;;;;;129.00;45.00;;;-0.20;99.90;;;;;;5069531;28;20107;-63
2023/01/25 12:40:46;;;;;;;112.43;43.17;;;-0.20;99.90;;;;;;5074880;28;20056;-63
2023/01/25 12:43:19;;;;;;;132.32;47.55;;;-0.20;99.90;;;;;;5088529;28;20032;-63
2023/01/25 12:45:45;;;;;;;;;;;-0.20;99.90;;;;;;5090106;28;20016;-63
2023/01/25 12:48:21;;;;;;;130.65;44.22;;;-0.20;99.90;;;;;;5087738;28;19911;-62
2023/01/25 12:50:55;;;;;;;123.97;45.65;;;-0.10;99.90;;;;;;5089122;28;20025;-62
2023/01/25 12:53:41;;;;;;;107.10;41.67;;;-0.10;99.90;;;;;;5087696;28;20051;-63
2023/01/25 12:56:21;;;;;;;107.65;42.42;;;0.00;99.90;;;;;;5089103;28;20470;-65
2023/01/25 12:58:55;;;;;;;112.90;43.47;;;0.00;99.90;;;;;;5089343;28;20024;-63
2023/01/25 13:01:32;;;;;;;125.72;43.42;;;0.00;99.90;;;;;;5089214;28;20112;-63
2023/01/25 13:04:15;;;;;;;132.02;45.72;;;-0.10;99.90;;;;;;5070499;28;20480;-62